createdAt,value
2018-11-29T00:00:37.607Z,11.17
2018-11-29T00:08:58.615Z,11.15
2018-11-29T00:17:20.175Z,11.08
2018-11-29T00:25:40.685Z,11.07
2018-11-29T00:34:01.735Z,10.79
2018-11-29T00:42:22.722Z,10.92
2018-11-29T00:50:43.708Z,11.15
2018-11-29T00:59:04.808Z,10.90
2018-11-29T01:07:25.821Z,11.07
2018-11-29T01:15:46.826Z,11.36
2018-11-29T01:24:07.816Z,11.37
2018-11-29T01:32:28.823Z,11.26
2018-11-29T01:40:49.831Z,11.48
2018-11-29T01:49:10.854Z,11.59
2018-11-29T01:57:31.881Z,11.63
2018-11-29T02:05:52.909Z,11.69
2018-11-29T02:14:13.930Z,11.64
2018-11-29T02:22:34.942Z,11.69
2018-11-29T02:30:55.952Z,11.77
2018-11-29T02:39:16.937Z,11.76
2018-11-29T02:47:38.037Z,11.61
2018-11-29T02:55:59.048Z,11.77
2018-11-29T03:04:20.055Z,11.57
2018-11-29T03:12:41.048Z,11.61
2018-11-29T03:21:02.075Z,11.69
2018-11-29T03:29:23.085Z,11.84
2018-11-29T03:37:44.099Z,11.67
2018-11-29T03:46:05.130Z,11.69
2018-11-29T03:54:26.148Z,11.60
2018-11-29T04:02:47.211Z,11.74
2018-11-29T04:11:08.906Z,11.88
2018-11-29T04:19:29.311Z,11.85
2018-11-29T04:27:50.308Z,11.67
2018-11-29T04:36:11.315Z,11.66
2018-11-29T04:44:32.372Z,11.59
2018-11-29T04:52:53.596Z,11.61
2018-11-29T05:01:14.620Z,11.71
2018-11-29T05:09:35.694Z,11.79
2018-11-29T05:17:56.736Z,11.87
2018-11-29T05:26:17.824Z,11.82
2018-11-29T05:34:38.815Z,11.95
2018-11-29T05:42:59.819Z,11.94
2018-11-29T05:51:20.823Z,11.94
2018-11-29T05:59:41.835Z,11.91
2018-11-29T06:08:02.844Z,11.98
2018-11-29T06:16:23.828Z,11.98
2018-11-29T06:24:44.831Z,12.17
2018-11-29T06:33:05.858Z,11.99
2018-11-29T06:41:26.872Z,11.98
2018-11-29T06:49:47.929Z,11.94
2018-11-29T06:58:08.922Z,12.02
2018-11-29T07:06:29.917Z,12.03
2018-11-29T07:14:50.927Z,12.01
2018-11-29T07:23:11.996Z,11.99
2018-11-29T07:31:33.004Z,11.97
2018-11-29T07:39:54.024Z,12.00
2018-11-29T07:48:15.027Z,12.08
2018-11-29T07:56:36.016Z,12.95
2018-11-29T08:04:57.188Z,13.23
2018-11-29T08:13:18.942Z,13.04
2018-11-29T08:21:40.714Z,12.98
2018-11-29T08:30:02.521Z,12.90
2018-11-29T08:38:23.854Z,12.69
2018-11-29T08:46:45.014Z,12.79
2018-11-29T08:55:06.048Z,12.92
2018-11-29T09:03:27.079Z,12.86
2018-11-29T09:11:48.132Z,12.99
2018-11-29T09:20:09.166Z,13.06
2018-11-29T09:28:30.211Z,12.92
2018-11-29T09:36:51.243Z,12.84
2018-11-29T09:45:12.319Z,12.81
2018-11-29T09:53:33.358Z,12.93
2018-11-29T10:01:54.372Z,13.07
2018-11-29T10:10:15.385Z,13.20
2018-11-29T10:18:36.407Z,13.16
2018-11-29T10:26:57.415Z,13.44
2018-11-29T10:35:18.408Z,13.62
2018-11-29T10:43:39.435Z,13.62
2018-11-29T10:52:00.429Z,13.80
2018-11-29T11:00:21.456Z,13.79
2018-11-29T11:08:42.502Z,13.90
2018-11-29T11:17:03.515Z,14.12
2018-11-29T11:25:24.558Z,14.28
2018-11-29T11:33:45.587Z,14.37
2018-11-29T11:42:06.592Z,14.19
2018-11-29T11:50:27.623Z,13.71
2018-11-29T11:58:48.715Z,13.88
2018-11-29T12:07:09.745Z,13.76
2018-11-29T12:15:30.809Z,13.81
2018-11-29T12:23:51.819Z,13.72
2018-11-29T12:32:12.835Z,13.49
2018-11-29T12:40:33.843Z,13.07
2018-11-29T12:48:54.882Z,12.95
2018-11-29T12:57:15.877Z,12.79
2018-11-29T13:05:36.887Z,12.94
2018-11-29T13:13:57.952Z,13.06
2018-11-29T13:22:19.067Z,13.20
2018-11-29T13:30:40.084Z,13.07
2018-11-29T13:39:01.116Z,12.86
2018-11-29T13:47:22.124Z,12.73
2018-11-29T13:55:43.164Z,12.65
2018-11-29T14:04:04.176Z,12.74
2018-11-29T14:12:25.160Z,12.87
2018-11-29T14:20:46.184Z,12.98
2018-11-29T14:29:07.219Z,13.06
2018-11-29T14:37:28.227Z,13.12
2018-11-29T14:45:49.223Z,13.22
2018-11-29T14:54:10.251Z,13.46
2018-11-29T15:02:31.267Z,13.61
2018-11-29T15:10:52.263Z,13.62
2018-11-29T15:19:13.355Z,13.84
2018-11-29T15:27:34.349Z,13.79
2018-11-29T15:35:55.372Z,13.54
2018-11-29T15:44:16.359Z,13.33
2018-11-29T15:52:37.387Z,13.25
2018-11-29T16:00:58.397Z,13.20
2018-11-29T16:09:19.522Z,13.07
2018-11-29T16:17:40.527Z,12.83
2018-11-29T16:26:01.530Z,12.69
2018-11-29T16:34:22.520Z,12.60
2018-11-29T16:42:43.870Z,12.52
2018-11-29T16:51:04.902Z,12.50
2018-11-29T16:59:25.903Z,12.33
2018-11-29T17:07:46.897Z,12.45
2018-11-29T17:16:07.885Z,12.72
2018-11-29T17:24:28.919Z,12.62
2018-11-29T17:32:50.002Z,12.50
2018-11-29T17:41:11.026Z,12.44
2018-11-29T17:49:32.016Z,12.45
2018-11-29T17:57:53.027Z,12.26
2018-11-29T18:06:14.032Z,11.98
2018-11-29T18:14:35.025Z,11.87
2018-11-29T18:22:56.031Z,11.78
2018-11-29T18:31:17.059Z,11.72
2018-11-29T18:39:38.067Z,11.43
2018-11-29T18:47:59.090Z,11.43
2018-11-29T18:56:20.095Z,11.42
2018-11-29T19:04:41.108Z,11.34
2018-11-29T19:13:02.111Z,11.50
2018-11-29T19:21:23.131Z,11.77
2018-11-29T19:29:44.143Z,11.99
2018-11-29T19:38:05.190Z,11.92
2018-11-29T19:46:26.208Z,11.95
2018-11-29T19:54:47.219Z,12.02
2018-11-29T20:03:08.252Z,12.04
2018-11-29T20:11:29.267Z,12.10
2018-11-29T20:19:50.256Z,12.27
2018-11-29T20:28:11.591Z,12.19
2018-11-29T20:36:32.607Z,12.15
2018-11-29T20:44:53.597Z,12.13
2018-11-29T20:53:14.610Z,12.04
2018-11-29T21:01:35.611Z,12.13
2018-11-29T21:09:56.647Z,12.10
2018-11-29T21:18:17.663Z,12.31
2018-11-29T21:26:38.664Z,12.34
2018-11-29T21:34:59.674Z,12.32
2018-11-29T21:43:20.673Z,12.20
2018-11-29T21:51:41.701Z,12.27
2018-11-29T22:00:02.760Z,12.20
2018-11-29T22:08:23.751Z,12.26
2018-11-29T22:16:44.774Z,12.21
2018-11-29T22:25:05.811Z,12.29
2018-11-29T22:33:26.826Z,12.21
2018-11-29T22:41:47.854Z,12.36
2018-11-29T22:50:08.840Z,12.46
2018-11-29T22:58:29.867Z,12.61
2018-11-29T23:06:50.880Z,12.73
2018-11-29T23:15:11.918Z,12.47
2018-11-29T23:23:32.946Z,12.52
2018-11-29T23:31:53.955Z,12.83
2018-11-29T23:40:14.980Z,12.87
2018-11-29T23:48:36.010Z,12.76
2018-11-29T23:56:57.001Z,12.85
